Time;durP1;ratioP1;P1;durP2;ratioP2;P2;SDS_P1;SDS_P2;PMS_P1;PMS_P2;Temp;Humidity;BMP_temperature;BMP_pressure;BME280_temperature;BME280_humidity;BME280_pressure;Samples;Min_cycle;Max_cycle;Signal;HPM_P1;HPM_P2
2022/05/15 00:01:05;;;;;;;31.67;2.87;;;9.40;99.90;;;;;;5044785;28;20239;-88
2022/05/15 00:03:31;;;;;;;2.83;1.93;;;9.30;99.90;;;;;;5046000;28;20194;-88
2022/05/15 00:05:59;;;;;;;47.37;3.10;;;9.10;99.90;;;;;;5028234;28;20216;-87
2022/05/15 00:08:27;;;;;;;32.27;5.43;;;9.00;99.90;;;;;;5045505;28;20259;-87
2022/05/15 00:10:53;;;;;;;4.37;1.27;;;8.90;99.90;;;;;;5045246;28;20202;-88
2022/05/15 00:13:20;;;;;;;4.37;2.80;;;8.80;99.90;;;;;;5044365;28;20221;-89
2022/05/15 00:15:49;;;;;;;3.50;1.83;;;8.80;99.90;;;;;;5046137;28;20249;-88
2022/05/15 00:18:15;;;;;;;2.07;1.37;;;8.80;99.90;;;;;;5061611;28;20737;-88
2022/05/15 00:20:41;;;;;;;2.30;1.70;;;8.80;99.90;;;;;;5044786;28;20279;-88
2022/05/15 00:23:08;;;;;;;1.80;1.70;;;8.70;99.90;;;;;;5028191;28;20229;-88
2022/05/15 00:25:34;;;;;;;1.97;1.30;;;8.70;99.90;;;;;;5045206;28;20576;-87
2022/05/15 00:28:00;;;;;;;4.00;1.97;;;8.60;99.90;;;;;;5028195;28;20728;-88
2022/05/15 00:30:26;;;;;;;2.57;1.90;;;8.70;99.90;;;;;;5045554;28;20256;-88
2022/05/15 00:32:52;;;;;;;24.60;3.50;;;8.70;99.90;;;;;;5044755;28;20640;-88
2022/05/15 00:35:18;;;;;;;24.93;3.73;;;8.70;99.90;;;;;;5045138;28;20331;-89
2022/05/15 00:37:44;;;;;;;5.03;2.10;;;8.70;99.90;;;;;;5044787;28;20232;-88
2022/05/15 00:40:12;;;;;;;10.93;2.40;;;8.70;99.90;;;;;;5060231;28;20198;-88
2022/05/15 00:42:37;;;;;;;17.33;2.90;;;8.70;99.90;;;;;;5044486;28;20193;-88
2022/05/15 00:45:05;;;;;;;10.23;2.93;;;8.60;99.90;;;;;;5045970;28;20226;-89
2022/05/15 00:47:31;;;;;;;3.90;2.33;;;8.60;99.90;;;;;;5061148;28;21127;-89
2022/05/15 00:49:56;;;;;;;3.57;2.50;;;8.60;99.90;;;;;;5028081;28;20220;-90
2022/05/15 00:52:26;;;;;;;2.07;1.87;;;8.60;99.90;;;;;;5045174;28;20978;-88
2022/05/15 00:55:04;;;;;;;2.33;1.57;;;8.50;99.90;;;;;;5044594;28;20214;-88
2022/05/15 00:57:33;;;;;;;13.67;2.80;;;8.50;99.90;;;;;;5044939;28;20666;-89
2022/05/15 01:00:01;;;;;;;3.13;2.40;;;8.60;99.90;;;;;;5045393;28;20229;-89
2022/05/15 01:02:34;;;;;;;2.40;2.10;;;8.70;99.90;;;;;;5044988;28;20445;-89
2022/05/15 01:05:01;;;;;;;16.93;2.60;;;8.80;99.90;;;;;;5045311;28;20247;-88
2022/05/15 01:07:26;;;;;;;10.67;1.87;;;8.90;99.90;;;;;;5047546;28;20220;-89
2022/05/15 01:09:52;;;;;;;10.17;2.43;;;8.90;99.90;;;;;;5048867;28;20194;-89
2022/05/15 01:12:18;;;;;;;15.40;3.13;;;9.00;99.90;;;;;;5048557;28;20240;-89
2022/05/15 01:14:46;;;;;;;12.60;3.93;;;9.00;99.90;;;;;;5049455;28;21027;-89
2022/05/15 01:17:13;;;;;;;5.57;2.50;;;8.90;99.90;;;;;;5048970;28;20210;-89
2022/05/15 01:19:41;;;;;;;3.87;2.13;;;8.90;99.90;;;;;;5048925;28;20225;-88
2022/05/15 01:22:10;;;;;;;3.20;2.50;;;8.90;99.90;;;;;;5048241;28;20196;-89
2022/05/15 01:24:36;;;;;;;2.03;1.83;;;8.90;99.90;;;;;;5048704;28;20178;-88
2022/05/15 01:27:07;;;;;;;1.87;1.67;;;8.80;99.90;;;;;;5030979;28;20217;-89
2022/05/15 01:29:37;;;;;;;1.73;1.50;;;8.80;99.90;;;;;;5047991;28;20611;-88
2022/05/15 01:32:04;;;;;;;6.53;1.97;;;8.80;99.90;;;;;;5048731;28;20209;-88
2022/05/15 01:34:30;;;;;;;1.70;1.57;;;8.80;99.90;;;;;;5047474;28;20268;-88
2022/05/15 01:36:59;;;;;;;1.50;1.40;;;8.70;99.90;;;;;;5048939;28;20272;-88
2022/05/15 01:39:26;;;;;;;1.53;1.43;;;8.50;99.90;;;;;;5048347;28;20282;-87
2022/05/15 01:41:52;;;;;;;2.87;1.57;;;8.50;99.90;;;;;;5047255;28;20217;-88
2022/05/15 01:44:18;;;;;;;2.10;1.73;;;8.40;99.90;;;;;;5047611;28;21151;-88
2022/05/15 01:46:43;;;;;;;1.70;1.60;;;8.30;99.90;;;;;;5044763;28;20205;-88
2022/05/15 01:49:09;;;;;;;2.20;1.70;;;8.20;99.90;;;;;;5063846;28;20186;-88
2022/05/15 01:51:39;;;;;;;7.07;2.33;;;8.20;99.90;;;;;;5049276;28;20511;-88
2022/05/15 01:54:05;;;;;;;2.53;2.13;;;8.20;99.90;;;;;;5048711;28;20230;-88
2022/05/15 01:56:36;;;;;;;7.97;2.87;;;8.20;99.90;;;;;;5046965;28;20225;-89
2022/05/15 01:59:04;;;;;;;7.03;1.70;;;8.20;99.90;;;;;;5046105;28;20213;-88
2022/05/15 02:01:30;;;;;;;3.73;1.97;;;8.20;99.90;;;;;;5047726;28;20226;-88
2022/05/15 02:03:56;;;;;;;4.33;2.57;;;8.40;99.90;;;;;;5048206;28;20182;-88
2022/05/15 02:06:21;;;;;;;4.67;2.43;;;8.60;99.90;;;;;;5030802;28;20216;-89
2022/05/15 02:08:48;;;;;;;3.07;2.03;;;8.70;99.90;;;;;;5047824;28;20263;-89
2022/05/15 02:11:14;;;;;;;5.07;3.13;;;8.80;99.90;;;;;;5048065;28;20291;-87
2022/05/15 02:13:41;;;;;;;4.00;3.40;;;8.80;99.90;;;;;;5047324;28;20228;-88
2022/05/15 02:16:07;;;;;;;4.87;3.30;;;8.80;99.90;;;;;;5046184;28;20214;-88
2022/05/15 02:18:33;;;;;;;3.73;2.17;;;8.80;99.90;;;;;;5046584;28;20186;-88
2022/05/15 02:20:59;;;;;;;5.30;3.90;;;8.70;99.90;;;;;;5046798;28;20272;-88
2022/05/15 02:23:26;;;;;;;2.67;2.37;;;8.70;99.90;;;;;;5013938;28;20218;-88
2022/05/15 02:25:53;;;;;;;3.43;3.13;;;8.70;99.90;;;;;;5014640;28;20224;-90
2022/05/15 02:28:19;;;;;;;2.27;1.97;;;8.60;99.90;;;;;;5014070;28;20236;-88
2022/05/15 02:30:48;;;;;;;11.33;2.07;;;8.50;99.90;;;;;;5031148;28;20635;-88
2022/05/15 02:33:14;;;;;;;1.37;1.27;;;8.50;99.90;;;;;;5046320;28;20214;-89
2022/05/15 02:35:40;;;;;;;2.50;1.83;;;8.50;99.90;;;;;;5046745;28;20307;-88
2022/05/15 02:38:06;;;;;;;1.50;1.40;;;8.50;99.90;;;;;;5030007;28;20213;-87
2022/05/15 02:40:32;;;;;;;2.10;1.70;;;8.40;99.90;;;;;;5029951;28;20210;-88
2022/05/15 02:42:58;;;;;;;1.40;1.30;;;8.30;99.90;;;;;;5046896;28;20205;-86
2022/05/15 02:45:24;;;;;;;18.07;3.10;;;8.20;99.90;;;;;;5046379;28;20263;-88
2022/05/15 02:47:51;;;;;;;50.70;3.60;;;8.00;99.90;;;;;;5046501;28;20213;-88
2022/05/15 02:53:03;;;;;;;1.93;1.83;;;7.70;99.90;;;;;;5046500;28;20213;-88
2022/05/15 02:55:29;;;;;;;2.43;1.60;;;7.70;99.90;;;;;;5045868;28;20323;-88
2022/05/15 02:57:56;;;;;;;2.83;2.63;;;7.70;99.90;;;;;;5047685;28;20182;-88
2022/05/15 03:00:24;;;;;;;15.33;2.30;;;7.70;99.90;;;;;;5047810;28;20659;-89
2022/05/15 03:02:50;;;;;;;14.43;2.43;;;7.70;99.90;;;;;;5045439;28;20703;-89
2022/05/15 03:05:18;;;;;;;7.87;1.73;;;7.60;99.90;;;;;;5027586;28;20308;-89
2022/05/15 03:07:44;;;;;;;3.43;1.73;;;7.50;99.90;;;;;;5044907;28;20218;-89
2022/05/15 03:10:17;;;;;;;2.17;1.97;;;7.50;99.90;;;;;;5044252;28;20533;-88
2022/05/15 03:12:44;;;;;;;22.37;2.97;;;7.60;99.90;;;;;;5045069;28;20981;-88
2022/05/15 03:15:14;;;;;;;5.83;2.90;;;7.80;99.90;;;;;;5043986;28;20562;-89
2022/05/15 03:17:41;;;;;;;2.80;2.53;;;7.80;99.90;;;;;;5061327;28;20221;-88
2022/05/15 03:20:08;;;;;;;14.83;3.03;;;7.80;99.90;;;;;;5046608;28;20214;-88
2022/05/15 03:22:35;;;;;;;3.93;2.07;;;7.70;99.90;;;;;;5045129;28;20234;-90
2022/05/15 03:25:01;;;;;;;19.13;2.30;;;7.80;99.90;;;;;;5046939;28;20190;-89
2022/05/15 03:27:27;;;;;;;13.57;1.33;;;7.70;99.90;;;;;;5047509;28;20716;-88
2022/05/15 03:29:53;;;;;;;2.30;1.87;;;7.70;99.90;;;;;;5029130;28;20364;-88
2022/05/15 03:32:19;;;;;;;21.47;3.63;;;7.70;99.90;;;;;;5044704;28;20221;-89
2022/05/15 03:34:44;;;;;;;10.30;1.30;;;7.50;99.90;;;;;;5012582;28;20236;-88
2022/05/15 03:37:10;;;;;;;1.63;1.50;;;7.50;99.90;;;;;;5029106;28;20209;-90
2022/05/15 03:39:36;;;;;;;26.63;2.40;;;7.50;99.90;;;;;;5012760;28;20193;-88
2022/05/15 03:42:02;;;;;;;1.77;1.67;;;7.50;99.90;;;;;;5045494;28;20272;-89
2022/05/15 03:44:28;;;;;;;3.07;1.93;;;7.40;99.90;;;;;;5046052;28;20457;-89
2022/05/15 03:46:54;;;;;;;2.30;1.67;;;7.40;99.90;;;;;;5028278;28;20375;-88
2022/05/15 03:49:20;;;;;;;1.60;1.33;;;7.40;99.90;;;;;;5045098;28;20256;-90
2022/05/15 03:51:46;;;;;;;1.80;1.70;;;7.40;99.90;;;;;;5029593;28;20692;-88
2022/05/15 03:54:11;;;;;;;1.47;1.20;;;7.40;99.90;;;;;;5028588;28;20225;-88
2022/05/15 03:56:50;;;;;;;1.07;1.03;;;7.40;99.90;;;;;;5029453;28;20217;-89
2022/05/15 03:59:18;;;;;;;3.70;2.47;;;7.40;99.90;;;;;;5030467;28;20221;-90
2022/05/15 04:01:44;;;;;;;4.07;2.00;;;7.50;99.90;;;;;;5045808;28;20272;-88
2022/05/15 04:04:10;;;;;;;2.10;1.90;;;7.50;99.90;;;;;;5028328;28;20650;-87
2022/05/15 04:06:37;;;;;;;1.47;1.13;;;7.50;99.90;;;;;;5045230;28;21073;-87
2022/05/15 04:09:04;;;;;;;2.57;2.37;;;7.50;99.90;;;;;;5044892;28;20260;-87
2022/05/15 04:11:30;;;;;;;11.17;2.93;;;7.50;99.90;;;;;;5044690;28;20210;-87
2022/05/15 04:13:55;;;;;;;1.30;1.20;;;7.60;99.90;;;;;;5027951;28;20705;-88
2022/05/15 04:16:21;;;;;;;0.87;0.87;;;7.70;99.90;;;;;;5061441;28;20238;-89
2022/05/15 04:18:47;;;;;;;5.47;1.53;;;7.80;99.90;;;;;;5028911;28;20763;-90
2022/05/15 04:21:12;;;;;;;6.50;3.10;;;7.80;99.90;;;;;;5027707;28;20253;-87
2022/05/15 04:23:38;;;;;;;4.77;2.87;;;7.70;99.90;;;;;;5044828;28;20268;-88
2022/05/15 04:26:04;;;;;;;3.27;2.63;;;7.80;99.90;;;;;;5044364;28;20682;-91
2022/05/15 04:28:30;;;;;;;1.93;1.83;;;7.90;99.90;;;;;;5044443;28;20267;-88
2022/05/15 04:30:56;;;;;;;9.63;3.73;;;8.00;99.90;;;;;;5028557;28;20955;-89
2022/05/15 04:33:21;;;;;;;5.80;3.30;;;8.20;99.90;;;;;;5028488;28;20237;-88
2022/05/15 04:35:47;;;;;;;3.27;2.40;;;8.30;99.90;;;;;;5027780;28;20233;-87
2022/05/15 04:38:13;;;;;;;4.50;2.97;;;8.40;99.90;;;;;;5027931;28;21077;-88
2022/05/15 04:40:38;;;;;;;6.53;3.13;;;8.50;99.90;;;;;;5044724;28;20217;-88
2022/05/15 04:43:04;;;;;;;6.87;4.33;;;8.60;99.90;;;;;;5047577;28;20193;-90
2022/05/15 04:45:30;;;;;;;7.73;3.00;;;8.80;99.90;;;;;;5048687;28;20193;-88
2022/05/15 04:47:56;;;;;;;3.20;2.23;;;8.90;99.90;;;;;;5048801;28;20557;-89
2022/05/15 04:50:22;;;;;;;5.63;3.83;;;9.10;99.90;;;;;;5049632;28;20209;-88
2022/05/15 04:52:48;;;;;;;7.13;2.43;;;9.20;99.90;;;;;;5031837;28;20210;-87
2022/05/15 04:55:15;;;;;;;5.10;3.90;;;9.40;99.90;;;;;;5049156;28;20225;-89
2022/05/15 04:57:41;;;;;;;9.00;5.53;;;9.50;99.90;;;;;;5049043;28;20707;-87
2022/05/15 05:00:13;;;;;;;11.60;3.27;;;9.60;99.90;;;;;;5049355;28;20217;-88
2022/05/15 05:02:39;;;;;;;5.97;3.37;;;9.80;99.90;;;;;;5049060;28;20767;-87
2022/05/15 05:05:05;;;;;;;6.63;3.77;;;10.00;99.90;;;;;;5031224;28;20222;-87
2022/05/15 05:07:31;;;;;;;12.87;3.63;;;10.10;99.90;;;;;;5032100;28;20625;-88
2022/05/15 05:09:57;;;;;;;4.60;3.27;;;10.10;99.90;;;;;;5032059;28;20182;-88
2022/05/15 05:12:23;;;;;;;8.87;2.77;;;10.30;99.90;;;;;;5047199;28;20235;-88
2022/05/15 05:14:49;;;;;;;6.77;4.00;;;10.60;99.90;;;;;;5047725;28;20230;-86
2022/05/15 05:17:16;;;;;;;20.03;5.20;;;11.50;99.90;;;;;;5047068;28;20226;-87
2022/05/15 05:19:42;;;;;;;12.13;5.23;;;13.60;99.90;;;;;;5030825;28;20551;-88
2022/05/15 05:22:08;;;;;;;11.13;6.03;;;15.20;99.90;;;;;;5048147;28;20190;-86
2022/05/15 05:24:35;;;;;;;9.97;6.10;;;17.00;99.90;;;;;;5048047;28;20247;-87
2022/05/15 05:27:01;;;;;;;22.57;6.90;;;17.80;99.90;;;;;;5031416;28;20229;-88
2022/05/15 05:29:27;;;;;;;14.20;5.00;;;17.80;99.90;;;;;;5047622;28;20224;-85
2022/05/15 05:31:54;;;;;;;7.90;3.80;;;18.80;99.90;;;;;;5030360;28;20324;-87
2022/05/15 05:34:20;;;;;;;5.87;3.00;;;19.90;99.90;;;;;;5047204;28;20229;-89
2022/05/15 05:36:45;;;;;;;5.43;2.87;;;20.60;99.90;;;;;;5048235;28;20189;-87
2022/05/15 05:39:11;;;;;;;5.47;2.57;;;21.10;99.90;;;;;;5046768;28;20228;-87
2022/05/15 05:41:37;;;;;;;6.13;2.50;;;20.00;99.90;;;;;;5047056;28;20225;-87
2022/05/15 05:44:03;;;;;;;7.90;3.07;;;19.40;99.90;;;;;;5046307;28;20759;-86
2022/05/15 05:46:29;;;;;;;11.53;2.70;;;19.60;99.90;;;;;;5030606;28;20319;-88
2022/05/15 05:48:56;;;;;;;5.53;2.60;;;18.70;99.90;;;;;;5031070;28;20233;-89
2022/05/15 05:51:22;;;;;;;8.80;2.90;;;18.40;99.90;;;;;;5048476;28;20287;-88
2022/05/15 05:53:48;;;;;;;8.67;2.73;;;18.00;99.90;;;;;;5030718;28;20218;-89
2022/05/15 05:56:14;;;;;;;10.77;2.53;;;17.60;99.90;;;;;;5030528;28;20284;-88
2022/05/15 05:58:40;;;;;;;13.17;3.67;;;17.70;99.90;;;;;;5030651;28;21029;-90
2022/05/15 06:01:07;;;;;;;3.30;2.23;;;17.80;99.90;;;;;;5030213;28;20201;-88
2022/05/15 06:06:17;;;;;;;9.77;2.77;;;18.60;99.90;;;;;;5048210;28;20225;-88
2022/05/15 06:08:44;;;;;;;5.50;2.30;;;18.60;99.90;;;;;;5030314;28;20213;-87
2022/05/15 06:11:11;;;;;;;13.37;3.30;;;19.00;99.90;;;;;;5046442;28;20548;-88
2022/05/15 06:13:38;;;;;;;9.50;2.63;;;18.40;99.90;;;;;;5047728;28;20218;-88
2022/05/15 06:16:04;;;;;;;6.83;3.43;;;19.40;99.90;;;;;;5030231;28;20535;-88
2022/05/15 06:18:29;;;;;;;6.77;3.20;;;19.50;99.90;;;;;;5048088;28;20201;-88
2022/05/15 06:20:55;;;;;;;10.30;2.40;;;18.70;99.90;;;;;;5045932;28;20256;-88
2022/05/15 06:23:21;;;;;;;4.93;3.00;;;19.00;99.90;;;;;;5046344;28;20214;-89
2022/05/15 06:25:47;;;;;;;6.10;2.77;;;19.10;99.90;;;;;;5029676;28;20218;-91
2022/05/15 06:28:13;;;;;;;6.60;2.83;;;18.80;99.90;;;;;;5045966;28;20194;-87
2022/05/15 06:30:39;;;;;;;3.33;2.50;;;18.60;99.90;;;;;;5046926;28;20202;-88
2022/05/15 06:33:06;;;;;;;6.63;2.57;;;18.90;99.90;;;;;;5045872;28;20214;-90
2022/05/15 06:35:32;;;;;;;10.63;2.60;;;19.00;99.90;;;;;;5044957;28;20283;-89
2022/05/15 06:38:04;;;;;;;7.07;2.27;;;18.50;99.90;;;;;;5029109;28;20618;-89
2022/05/15 06:40:31;;;;;;;11.63;2.43;;;19.00;99.90;;;;;;5029229;28;20242;-89
2022/05/15 06:42:57;;;;;;;5.07;2.40;;;19.00;99.90;;;;;;5047178;28;20190;-89
2022/05/15 06:45:24;;;;;;;8.47;2.60;;;19.10;99.90;;;;;;5046287;28;20732;-89
2022/05/15 06:47:50;;;;;;;7.37;2.37;;;18.90;99.90;;;;;;5028978;28;20679;-88
2022/05/15 06:50:16;;;;;;;9.60;2.70;;;19.40;99.90;;;;;;5029159;28;20216;-90
2022/05/15 06:52:42;;;;;;;9.77;3.10;;;19.80;99.90;;;;;;5045320;28;20208;-88
2022/05/15 06:55:13;;;;;;;11.73;3.37;;;19.20;99.90;;;;;;5044255;28;20210;-89
2022/05/15 06:57:40;;;;;;;9.37;3.40;;;19.10;99.90;;;;;;5060434;28;20277;-87
2022/05/15 07:00:15;;;;;;;7.73;2.77;;;19.10;99.90;;;;;;5060107;28;20218;-89
2022/05/15 07:02:41;;;;;;;7.40;2.37;;;20.10;99.90;;;;;;5042473;28;20221;-86
2022/05/15 07:05:10;;;;;;;10.87;3.50;;;20.90;99.90;;;;;;5041743;28;20222;-88
2022/05/15 07:07:37;;;;;;;6.80;2.73;;;19.60;99.90;;;;;;5043336;28;20709;-88
2022/05/15 07:10:04;;;;;;;7.07;2.30;;;19.50;99.90;;;;;;5042486;28;20639;-92
2022/05/15 07:12:30;;;;;;;13.83;3.33;;;20.10;99.90;;;;;;5043094;28;20541;-89
2022/05/15 07:14:56;;;;;;;8.67;2.73;;;20.30;99.90;;;;;;5044092;28;20738;-86
2022/05/15 07:17:22;;;;;;;5.43;2.47;;;20.00;99.90;;;;;;5045057;28;20881;-90
2022/05/15 07:19:47;;;;;;;5.80;2.30;;;20.50;99.90;;;;;;5045427;28;20225;-87
2022/05/15 07:22:14;;;;;;;12.40;3.67;;;19.80;99.90;;;;;;5045085;28;20186;-87
2022/05/15 07:24:40;;;;;;;8.33;3.13;;;19.80;99.90;;;;;;5045118;28;20204;-88
2022/05/15 07:27:08;;;;;;;10.67;2.83;;;19.90;99.90;;;;;;5046255;28;20214;-88
2022/05/15 07:29:36;;;;;;;9.23;3.10;;;20.00;99.90;;;;;;5028441;28;20244;-88
2022/05/15 07:32:03;;;;;;;7.37;2.63;;;19.80;99.90;;;;;;5028726;28;20218;-91
2022/05/15 07:34:29;;;;;;;8.87;3.07;;;19.90;99.90;;;;;;5028254;28;20225;-89
2022/05/15 07:36:55;;;;;;;12.00;2.93;;;20.00;99.90;;;;;;5045059;28;20190;-88
2022/05/15 07:39:21;;;;;;;8.27;2.70;;;19.60;99.90;;;;;;5044447;28;20249;-88
2022/05/15 07:41:48;;;;;;;10.53;3.17;;;19.80;99.90;;;;;;5044912;28;20548;-85
2022/05/15 07:44:15;;;;;;;6.93;2.60;;;19.30;99.90;;;;;;5044340;28;20317;-88
2022/05/15 07:46:41;;;;;;;11.47;3.07;;;19.00;99.90;;;;;;5044082;28;20339;-87
2022/05/15 07:49:08;;;;;;;6.67;2.63;;;18.80;99.90;;;;;;5044155;28;20209;-86
2022/05/15 07:51:34;;;;;;;10.43;4.03;;;19.60;99.90;;;;;;5044226;28;20174;-88
2022/05/15 07:54:00;;;;;;;10.30;3.00;;;19.70;99.90;;;;;;5044218;28;20243;-88
2022/05/15 07:56:28;;;;;;;11.37;2.63;;;20.20;99.90;;;;;;5044269;28;20654;-86
2022/05/15 07:58:54;;;;;;;14.50;2.47;;;19.90;99.90;;;;;;5043099;28;20237;-85
2022/05/15 08:01:19;;;;;;;6.10;2.20;;;19.40;99.90;;;;;;5043028;28;20327;-86
2022/05/15 08:03:46;;;;;;;5.57;2.20;;;20.50;99.90;;;;;;5028037;28;20265;-85
2022/05/15 08:09:00;;;;;;;5.57;2.80;;;20.40;99.90;;;;;;5043527;28;20222;-86
2022/05/15 08:11:28;;;;;;;4.77;2.23;;;20.70;99.90;;;;;;5042222;28;20218;-86
2022/05/15 08:13:58;;;;;;;9.57;2.38;;;20.40;99.90;;;;;;5041840;28;20218;-87
2022/05/15 08:16:24;;;;;;;8.70;2.50;;;21.00;99.90;;;;;;5044459;28;21126;-89
2022/05/15 08:24:19;;;;;;;3.50;2.00;;;21.40;99.90;;;;;;5043699;28;20225;-86
2022/05/15 08:26:45;;;;;;;3.58;1.92;;;21.60;99.90;;;;;;5002723;28;20217;-88
2022/05/15 08:29:12;;;;;;;6.30;2.42;;;22.00;99.90;;;;;;5044093;28;20249;-87
2022/05/15 08:31:39;;;;;;;6.30;2.10;;;22.10;99.90;;;;;;5044182;28;20218;-89
2022/05/15 08:34:06;;;;;;;5.50;1.60;;;22.50;99.90;;;;;;5043359;28;20229;-87
2022/05/15 08:36:33;;;;;;;7.15;2.13;;;21.30;99.90;;;;;;5043333;28;20304;-89
2022/05/15 08:38:59;;;;;;;7.63;1.92;;;20.60;99.90;;;;;;5044447;28;20210;-88
2022/05/15 08:41:30;;;;;;;4.00;1.70;;;21.00;99.90;;;;;;5026757;28;20209;-88
2022/05/15 08:44:02;;;;;;;8.55;2.08;;;21.30;99.90;;;;;;5043614;28;20961;-87
2022/05/15 08:46:41;;;;;;;6.60;1.92;;;20.90;99.90;;;;;;5043852;28;20555;-88
2022/05/15 08:49:21;;;;;;;6.15;2.35;;;20.70;99.90;;;;;;5039289;28;20227;-88
2022/05/15 08:52:00;;;;;;;7.13;1.95;;;20.50;99.90;;;;;;5040418;28;20240;-88
2022/05/15 08:54:26;;;;;;;6.57;2.40;;;20.40;99.90;;;;;;5056174;28;20239;-89
2022/05/15 08:56:53;;;;;;;4.45;2.08;;;20.30;99.90;;;;;;5056412;28;20277;-87
2022/05/15 08:59:32;;;;;;;6.10;2.03;;;20.50;99.90;;;;;;5041612;28;20225;-86
2022/05/15 09:02:00;;;;;;;6.93;2.40;;;20.40;99.90;;;;;;5042658;28;20237;-87
2022/05/15 09:04:27;;;;;;;6.57;2.20;;;20.10;99.90;;;;;;5042854;28;20221;-86
2022/05/15 09:07:28;;;;;;;11.27;2.53;;;21.10;99.90;;;;;;5044278;28;20197;-85
2022/05/15 09:10:20;;;;;;;3.35;1.92;;;21.60;99.90;;;;;;5042394;28;20225;-86
2022/05/15 09:12:56;;;;;;;3.27;1.60;;;22.10;99.90;;;;;;5043339;28;20186;-87
2022/05/15 09:15:26;;;;;;;4.65;1.88;;;22.30;99.90;;;;;;5042140;28;20261;-86
2022/05/15 09:18:00;;;;;;;4.68;1.90;;;22.40;99.90;;;;;;5042403;28;20214;-88
2022/05/15 09:20:44;;;;;;;5.05;1.83;;;23.10;99.90;;;;;;5057874;28;20267;-86
2022/05/15 09:23:29;;;;;;;8.00;2.58;;;22.60;99.90;;;;;;5042494;28;21058;-89
2022/05/15 09:26:40;;;;;;;9.35;1.85;;;22.00;99.90;;;;;;5042818;28;20222;-86
2022/05/15 09:29:15;;;;;;;8.85;2.38;;;22.10;99.90;;;;;;5046893;28;20226;-87
2022/05/15 09:31:44;;;;;;;7.45;2.50;;;22.20;99.90;;;;;;5045387;28;20273;-87
2022/05/15 09:34:30;;;;;;;7.57;1.92;;;22.40;99.90;;;;;;5045913;28;20273;-87
2022/05/15 09:39:49;;;;;;;8.50;2.25;;;22.40;99.90;;;;;;5059294;28;20310;-86
2022/05/15 09:45:00;;;;;;;5.20;1.75;;;22.70;99.90;;;;;;5045396;28;20221;-87
2022/05/15 09:47:33;;;;;;;10.82;2.13;;;22.90;99.90;;;;;;5044308;28;20217;-87
2022/05/15 09:49:59;;;;;;;6.95;1.70;;;21.50;99.90;;;;;;5044585;28;20218;-87
2022/05/15 09:52:35;;;;;;;6.72;1.80;;;21.90;99.90;;;;;;5044951;28;20225;-86
2022/05/15 09:55:19;;;;;;;8.48;2.38;;;22.60;99.90;;;;;;5042944;28;20197;-87
2022/05/15 09:58:01;;;;;;;7.82;2.53;;;23.10;99.90;;;;;;5045016;28;20170;-88
2022/05/15 10:00:30;;;;;;;7.30;1.98;;;23.00;99.90;;;;;;5044312;28;20218;-88
2022/05/15 10:03:03;;;;;;;5.60;1.67;;;23.20;99.90;;;;;;5043914;28;20324;-87
2022/05/15 10:05:35;;;;;;;5.40;2.00;;;23.30;99.90;;;;;;5045481;28;20282;-88
2022/05/15 10:08:01;;;;;;;3.35;1.70;;;23.20;99.90;;;;;;5043718;28;20242;-86
2022/05/15 10:10:34;;;;;;;8.50;2.55;;;22.60;99.90;;;;;;5043934;28;20681;-86
2022/05/15 10:13:10;;;;;;;7.25;1.70;;;22.80;99.90;;;;;;5045445;28;20185;-87
2022/05/15 10:15:49;;;;;;;4.82;1.80;;;22.80;99.90;;;;;;5044766;28;20256;-87
2022/05/15 10:18:20;;;;;;;9.20;1.77;;;22.10;99.90;;;;;;5044148;28;20571;-89
2022/05/15 10:20:48;;;;;;;8.20;2.53;;;21.90;99.90;;;;;;5045297;28;20218;-88
2022/05/15 10:23:21;;;;;;;5.90;2.25;;;22.20;99.90;;;;;;5045305;28;20206;-89
2022/05/15 10:26:07;;;;;;;6.60;1.80;;;22.80;99.90;;;;;;5060562;28;20217;-89
2022/05/15 10:28:36;;;;;;;6.60;2.65;;;22.70;99.90;;;;;;5044750;28;20218;-88
2022/05/15 10:31:08;;;;;;;4.82;1.85;;;23.10;99.90;;;;;;5045479;28;20225;-88
2022/05/15 10:33:47;;;;;;;5.82;2.10;;;23.10;99.90;;;;;;5043259;28;20186;-87
2022/05/15 10:36:34;;;;;;;5.75;1.95;;;21.80;99.90;;;;;;5045899;28;20217;-88
2022/05/15 10:39:33;;;;;;;7.88;1.88;;;21.70;99.90;;;;;;5044466;28;20731;-91
2022/05/15 10:42:18;;;;;;;9.73;2.43;;;21.50;99.90;;;;;;5044466;28;20687;-89
2022/05/15 10:45:14;;;;;;;11.00;2.33;;;21.00;99.90;;;;;;5045680;28;20232;-89
2022/05/15 10:48:19;;;;;;;4.50;2.00;;;21.30;99.90;;;;;;5042893;28;20221;-91
2022/05/15 10:51:16;;;;;;;6.32;1.80;;;21.90;99.90;;;;;;5030536;28;20225;-91
2022/05/15 10:57:29;;;;;;;3.00;1.60;;;22.50;99.90;;;;;;5047357;28;20218;-90
2022/05/15 11:00:15;;;;;;;5.40;1.90;;;22.20;99.90;;;;;;5047900;28;20226;-86
2022/05/15 11:03:19;;;;;;;5.05;2.17;;;22.40;99.90;;;;;;5060360;28;20271;-87
2022/05/15 11:06:18;;;;;;;5.90;1.60;;;21.40;99.90;;;;;;5045922;28;20598;-89
2022/05/15 11:08:56;;;;;;;3.57;1.57;;;21.80;99.90;;;;;;5044606;28;20213;-87
2022/05/15 11:11:45;;;;;;;4.97;1.42;;;21.60;99.90;;;;;;5061211;28;20218;-88
2022/05/15 11:14:22;;;;;;;8.50;2.07;;;21.20;99.90;;;;;;5044724;28;20258;-90
2022/05/15 11:17:10;;;;;;;5.27;2.13;;;20.90;99.90;;;;;;5061593;28;20213;-89
2022/05/15 11:19:41;;;;;;;5.20;1.83;;;21.20;99.90;;;;;;5047133;28;20210;-85
2022/05/15 11:22:30;;;;;;;4.83;1.97;;;21.00;99.90;;;;;;5045137;28;20264;-87
2022/05/15 11:25:27;;;;;;;4.20;1.93;;;20.80;99.90;;;;;;5044423;28;20193;-84
2022/05/15 11:27:56;;;;;;;5.67;2.10;;;20.60;99.90;;;;;;5051749;28;20675;-84
2022/05/15 11:30:27;;;;;;;5.43;1.83;;;20.40;99.90;;;;;;5040907;28;20226;-87
2022/05/15 11:32:52;;;;;;;4.27;1.93;;;20.30;99.90;;;;;;5042735;28;20217;-85
2022/05/15 11:35:18;;;;;;;4.93;1.80;;;20.30;99.90;;;;;;5044158;28;20238;-87
2022/05/15 11:37:56;;;;;;;4.10;1.80;;;20.10;99.90;;;;;;5045419;28;20221;-87
2022/05/15 11:41:13;;;;;;;4.73;1.97;;;20.50;99.90;;;;;;5060012;28;20228;-86
2022/05/15 11:44:00;;;;;;;4.97;2.20;;;20.60;99.90;;;;;;4944989;28;20236;-84
2022/05/15 11:47:22;;;;;;;6.07;1.63;;;20.50;99.90;;;;;;4945343;28;20220;-85
2022/05/15 11:50:00;;;;;;;7.33;3.23;;;20.40;99.90;;;;;;4961997;28;20312;-86
2022/05/15 11:52:52;;;;;;;7.67;1.73;;;20.50;99.90;;;;;;4960647;28;20237;-85
2022/05/15 11:55:42;;;;;;;6.07;2.10;;;20.70;99.90;;;;;;5027822;28;20218;-84
2022/05/15 11:58:12;;;;;;;4.17;1.40;;;20.70;99.90;;;;;;5035484;28;20197;-84
2022/05/15 12:00:42;;;;;;;4.33;1.67;;;20.70;99.90;;;;;;5041656;28;20186;-84
2022/05/15 12:03:48;;;;;;;3.73;1.07;;;20.80;99.90;;;;;;5024425;28;20249;-84
2022/05/15 12:06:17;;;;;;;3.13;1.67;;;20.60;99.90;;;;;;5025791;28;20218;-85
2022/05/15 12:08:44;;;;;;;3.10;1.17;;;20.60;99.90;;;;;;5054674;28;20206;-84
2022/05/15 12:11:19;;;;;;;4.47;1.90;;;20.70;99.90;;;;;;5039464;28;20224;-84
2022/05/15 12:13:46;;;;;;;3.27;1.33;;;20.90;99.90;;;;;;5040321;28;20252;-85
2022/05/15 12:16:28;;;;;;;1.93;1.27;;;20.80;99.90;;;;;;5023324;28;20206;-85
2022/05/15 12:19:15;;;;;;;4.03;1.30;;;20.90;99.90;;;;;;5041262;28;20235;-86
2022/05/15 12:21:46;;;;;;;3.87;1.70;;;20.70;99.90;;;;;;5042330;28;20209;-85
2022/05/15 12:24:27;;;;;;;3.17;1.50;;;20.80;99.90;;;;;;5031095;28;20221;-85
2022/05/15 12:27:20;;;;;;;5.07;1.70;;;20.50;99.90;;;;;;5040775;28;20221;-85
2022/05/15 12:30:11;;;;;;;6.10;2.10;;;20.50;99.90;;;;;;5041699;28;20218;-84
2022/05/15 12:32:38;;;;;;;11.33;2.83;;;20.40;99.90;;;;;;5042029;28;20304;-86
2022/05/15 12:35:21;;;;;;;2.43;1.50;;;20.40;99.90;;;;;;5039740;28;21041;-86
2022/05/15 12:38:04;;;;;;;5.17;1.80;;;20.10;99.90;;;;;;5040173;28;20580;-83
2022/05/15 12:40:33;;;;;;;4.40;2.07;;;20.20;99.90;;;;;;5040128;28;20247;-85
2022/05/15 12:43:00;;;;;;;5.03;1.87;;;20.00;99.90;;;;;;5056279;28;20189;-85
2022/05/15 12:45:27;;;;;;;5.10;2.10;;;19.50;99.90;;;;;;5040826;28;20219;-84
2022/05/15 12:47:59;;;;;;;4.77;1.63;;;19.50;99.90;;;;;;5039987;28;20218;-85
2022/05/15 12:50:24;;;;;;;6.37;2.00;;;19.80;99.90;;;;;;5040922;28;20308;-86
2022/05/15 12:52:55;;;;;;;1.93;1.50;;;19.90;99.90;;;;;;5041983;28;20237;-85
2022/05/15 12:55:32;;;;;;;1.77;1.50;;;19.80;99.90;;;;;;5039394;28;20225;-85
2022/05/15 12:58:03;;;;;;;4.47;2.10;;;19.90;99.90;;;;;;5054210;28;20185;-86
2022/05/15 13:00:42;;;;;;;4.70;1.57;;;19.70;99.90;;;;;;5023346;28;20600;-84
2022/05/15 13:03:12;;;;;;;5.37;1.93;;;19.40;99.90;;;;;;5042865;28;20245;-84
2022/05/15 13:05:47;;;;;;;6.77;2.57;;;19.40;99.90;;;;;;5042034;28;20948;-86
2022/05/15 13:08:13;;;;;;;10.03;2.47;;;19.30;99.90;;;;;;5042401;28;20225;-85
2022/05/15 13:10:57;;;;;;;6.33;2.00;;;19.50;99.90;;;;;;5010316;28;20524;-85
2022/05/15 13:13:35;;;;;;;5.47;2.40;;;19.60;99.90;;;;;;5048230;28;20209;-85
2022/05/15 13:16:03;;;;;;;4.37;2.43;;;19.50;99.90;;;;;;5047276;28;20205;-86
2022/05/15 13:18:36;;;;;;;4.57;1.87;;;19.40;99.90;;;;;;5049071;28;20190;-85
2022/05/15 13:21:08;;;;;;;6.00;2.20;;;19.40;99.90;;;;;;5045376;28;20263;-85
2022/05/15 13:23:38;;;;;;;8.37;3.00;;;19.40;99.90;;;;;;5044960;28;20217;-85
2022/05/15 13:26:07;;;;;;;8.03;2.37;;;19.40;99.90;;;;;;5043999;28;20210;-84
2022/05/15 13:28:35;;;;;;;7.57;1.67;;;19.30;99.90;;;;;;5023815;28;20320;-84